createdAt,value
2023-04-28T00:01:45.790Z,2.33
2023-04-28T00:04:13.215Z,2.60
2023-04-28T00:06:41.201Z,2.20
2023-04-28T00:09:11.310Z,2.47
2023-04-28T00:11:38.727Z,2.20
2023-04-28T00:14:06.119Z,2.43
2023-04-28T00:16:33.326Z,2.23
2023-04-28T00:19:00.444Z,2.20
2023-04-28T00:21:28.791Z,2.50
2023-04-28T00:23:56.380Z,2.40
2023-04-28T00:26:23.551Z,2.17
2023-04-28T00:28:50.961Z,2.00
2023-04-28T00:31:18.160Z,2.30
2023-04-28T00:33:45.401Z,2.40
2023-04-28T00:36:12.609Z,2.17
2023-04-28T00:38:39.664Z,2.43
2023-04-28T00:41:07.391Z,2.33
2023-04-28T00:43:48.107Z,2.37
2023-04-28T00:46:30.488Z,2.20
2023-04-28T00:48:58.277Z,2.20
2023-04-28T00:51:25.634Z,2.17
2023-04-28T00:53:52.760Z,2.23
2023-04-28T00:56:20.937Z,2.30
2023-04-28T00:58:48.007Z,2.27
2023-04-28T01:01:15.188Z,2.50
2023-04-28T01:03:42.616Z,2.20
2023-04-28T01:06:10.852Z,2.20
2023-04-28T01:08:39.613Z,2.20
2023-04-28T01:11:16.846Z,2.50
2023-04-28T01:14:22.511Z,2.27
2023-04-28T01:16:49.782Z,2.37
2023-04-28T01:19:22.493Z,2.10
2023-04-28T01:21:51.320Z,2.30
2023-04-28T01:24:22.763Z,2.13
2023-04-28T01:26:50.692Z,2.27
2023-04-28T01:29:18.063Z,2.27
2023-04-28T01:31:45.250Z,2.00
2023-04-28T01:34:12.363Z,2.17
2023-04-28T01:36:39.441Z,2.20
2023-04-28T01:39:07.154Z,2.13
2023-04-28T01:41:34.693Z,2.07
2023-04-28T01:44:02.023Z,2.00
2023-04-28T01:46:29.198Z,2.00
2023-04-28T01:48:58.369Z,2.00
2023-04-28T01:51:25.566Z,2.20
2023-04-28T01:53:53.127Z,2.07
2023-04-28T01:56:20.343Z,2.07
2023-04-28T01:58:47.538Z,2.00
2023-04-28T02:01:14.883Z,2.20
2023-04-28T02:03:43.084Z,2.10
2023-04-28T02:06:10.373Z,2.20
2023-04-28T02:08:37.470Z,2.20
2023-04-28T02:11:04.641Z,2.00
2023-04-28T02:13:31.860Z,2.10
2023-04-28T02:16:02.592Z,2.10
2023-04-28T02:18:29.962Z,2.17
2023-04-28T02:21:12.120Z,2.10
2023-04-28T02:23:40.149Z,2.60
2023-04-28T02:26:07.511Z,2.00
2023-04-28T02:28:34.674Z,2.30
2023-04-28T02:31:05.922Z,2.20
2023-04-28T02:33:33.436Z,1.97
2023-04-28T02:36:01.374Z,2.10
2023-04-28T02:38:28.742Z,2.07
2023-04-28T02:41:06.648Z,2.20
2023-04-28T02:43:34.248Z,2.00
2023-04-28T02:46:05.140Z,2.40
2023-04-28T02:48:33.972Z,2.13
2023-04-28T02:51:01.303Z,1.90
2023-04-28T02:53:28.855Z,2.00
2023-04-28T02:55:56.227Z,2.00
2023-04-28T02:58:23.315Z,2.37
2023-04-28T03:00:50.672Z,1.97
2023-04-28T03:03:18.464Z,2.30
2023-04-28T03:05:46.210Z,2.00
2023-04-28T03:08:13.431Z,2.00
2023-04-28T03:10:40.805Z,2.13
2023-04-28T03:13:07.978Z,2.10
2023-04-28T03:15:35.524Z,2.20
2023-04-28T03:18:02.886Z,2.30
2023-04-28T03:20:30.071Z,2.03
2023-04-28T03:22:57.390Z,1.83
2023-04-28T03:25:24.542Z,1.90
2023-04-28T03:27:52.442Z,1.97
2023-04-28T03:30:19.700Z,2.20
2023-04-28T03:32:47.100Z,2.30
2023-04-28T03:35:15.640Z,2.10
2023-04-28T03:37:43.918Z,1.97
2023-04-28T03:40:11.837Z,2.10
2023-04-28T03:42:57.506Z,1.97
2023-04-28T03:45:32.097Z,1.97
2023-04-28T03:47:59.606Z,2.10
2023-04-28T03:50:26.931Z,1.97
2023-04-28T03:52:55.263Z,1.90
2023-04-28T03:55:23.033Z,1.90
2023-04-28T03:57:51.777Z,2.10
2023-04-28T04:00:19.203Z,1.80
2023-04-28T04:02:48.545Z,2.20
2023-04-28T04:05:17.049Z,1.90
2023-04-28T04:07:44.761Z,1.87
2023-04-28T04:10:12.754Z,2.27
2023-04-28T04:12:44.073Z,2.10
2023-04-28T04:15:12.174Z,2.00
2023-04-28T04:17:40.249Z,2.10
2023-04-28T04:20:08.180Z,2.00
2023-04-28T04:22:35.269Z,2.50
2023-04-28T04:25:03.654Z,2.00
2023-04-28T04:27:31.035Z,2.07
2023-04-28T04:29:58.446Z,2.07
2023-04-28T04:32:27.298Z,1.87
2023-04-28T04:34:54.957Z,1.93
2023-04-28T04:37:22.083Z,1.90
2023-04-28T04:39:56.078Z,2.30
2023-04-28T04:42:25.702Z,2.10
2023-04-28T04:45:08.397Z,2.00
2023-04-28T04:47:36.238Z,2.30
2023-04-28T04:50:03.440Z,2.10
2023-04-28T04:52:30.609Z,2.00
2023-04-28T04:54:57.872Z,2.07
2023-04-28T04:57:25.976Z,1.90
2023-04-28T05:00:28.656Z,2.03
2023-04-28T05:02:56.415Z,2.10
2023-04-28T05:05:23.978Z,2.10
2023-04-28T05:08:03.792Z,1.97
2023-04-28T05:10:31.116Z,2.30
2023-04-28T05:12:59.611Z,2.00
2023-04-28T05:15:26.753Z,1.80
2023-04-28T05:18:24.163Z,2.10
2023-04-28T05:20:51.272Z,1.93
2023-04-28T05:23:19.681Z,2.20
2023-04-28T05:25:48.147Z,2.20
2023-04-28T05:28:15.481Z,2.07
2023-04-28T05:30:45.063Z,2.10
2023-04-28T05:33:13.993Z,2.20
2023-04-28T05:35:41.931Z,2.33
2023-04-28T05:38:09.467Z,2.27
2023-04-28T05:40:36.668Z,2.43
2023-04-28T05:43:03.827Z,2.07
2023-04-28T05:45:31.059Z,2.00
2023-04-28T05:47:58.601Z,2.37
2023-04-28T05:50:25.846Z,2.20
2023-04-28T05:52:54.150Z,2.10
2023-04-28T05:55:21.485Z,2.10
2023-04-28T05:57:52.964Z,2.10
2023-04-28T06:00:22.269Z,2.10
2023-04-28T06:02:52.461Z,2.10
2023-04-28T06:05:21.129Z,2.10
2023-04-28T06:07:51.916Z,2.17
2023-04-28T06:10:21.739Z,2.70
2023-04-28T06:12:48.955Z,2.60
2023-04-28T06:15:16.236Z,2.43
2023-04-28T06:17:43.526Z,2.60
2023-04-28T06:20:13.245Z,2.20
2023-04-28T06:22:41.567Z,2.40
2023-04-28T06:25:09.333Z,2.63
2023-04-28T06:27:44.154Z,2.57
2023-04-28T06:30:13.613Z,2.90
2023-04-28T06:32:40.779Z,2.70
2023-04-28T06:35:08.004Z,2.67
2023-04-28T06:37:36.146Z,2.43
2023-04-28T06:40:03.997Z,2.80
2023-04-28T06:42:31.641Z,2.80
2023-04-28T06:45:06.260Z,3.03
2023-04-28T06:47:33.707Z,8.27
2023-04-28T06:50:01.933Z,4.50
2023-04-28T06:52:39.339Z,3.40
2023-04-28T06:55:10.585Z,3.30
2023-04-28T06:57:42.204Z,3.00
2023-04-28T07:00:10.664Z,2.77
2023-04-28T07:02:38.103Z,2.77
2023-04-28T07:05:05.759Z,2.90
2023-04-28T07:07:32.905Z,3.00
2023-04-28T07:10:01.139Z,3.07
2023-04-28T07:12:28.563Z,2.90
2023-04-28T07:14:56.258Z,3.23
2023-04-28T07:17:23.359Z,2.90
2023-04-28T07:19:51.109Z,3.17
2023-04-28T07:22:18.280Z,2.73
2023-04-28T07:24:45.792Z,2.73
2023-04-28T07:27:12.978Z,2.73
2023-04-28T07:29:40.115Z,3.00
2023-04-28T07:32:10.779Z,2.43
2023-04-28T07:34:38.179Z,3.33
2023-04-28T07:37:05.574Z,3.07
2023-04-28T07:39:35.066Z,3.33
2023-04-28T07:42:03.496Z,3.30
2023-04-28T07:44:32.065Z,3.00
2023-04-28T07:47:02.845Z,3.20
2023-04-28T07:49:30.232Z,3.20
2023-04-28T07:51:57.415Z,3.20
2023-04-28T07:54:25.055Z,3.23
2023-04-28T07:56:52.298Z,3.30
2023-04-28T07:59:19.452Z,3.10
2023-04-28T08:01:46.620Z,3.27
2023-04-28T08:04:14.257Z,2.93
2023-04-28T08:06:42.265Z,2.90
2023-04-28T08:09:09.424Z,2.90
2023-04-28T08:11:36.552Z,2.67
2023-04-28T08:14:03.845Z,3.00
2023-04-28T08:16:32.118Z,3.23
2023-04-28T08:19:00.508Z,2.57
2023-04-28T08:21:27.806Z,3.20
2023-04-28T08:23:54.939Z,2.90
2023-04-28T08:26:22.101Z,2.77
2023-04-28T08:28:49.283Z,3.20
2023-04-28T08:31:16.644Z,3.00
2023-04-28T08:33:44.893Z,3.20
2023-04-28T08:36:12.269Z,3.43
2023-04-28T08:38:39.408Z,3.40
2023-04-28T08:41:06.585Z,3.47
2023-04-28T08:43:37.404Z,3.70
2023-04-28T08:46:08.431Z,3.40
2023-04-28T08:48:48.843Z,3.00
2023-04-28T08:51:32.360Z,3.20
2023-04-28T08:56:36.874Z,2.73
2023-04-28T08:59:05.289Z,3.60
2023-04-28T09:01:32.975Z,3.67
2023-04-28T09:04:04.053Z,3.30
2023-04-28T09:06:38.946Z,3.70
2023-04-28T09:09:26.393Z,3.63
2023-04-28T09:12:01.890Z,3.57
2023-04-28T09:14:30.283Z,3.80
2023-04-28T09:16:57.623Z,3.70
2023-04-28T09:19:32.964Z,3.30
2023-04-28T09:22:05.575Z,3.90
2023-04-28T09:24:42.925Z,3.83
2023-04-28T09:27:12.020Z,3.47
2023-04-28T09:29:39.806Z,3.20
2023-04-28T09:32:21.867Z,3.53
2023-04-28T09:34:51.641Z,3.67
2023-04-28T09:37:23.703Z,3.53
2023-04-28T09:39:53.060Z,3.67
2023-04-28T09:42:37.851Z,3.87
2023-04-28T09:45:09.136Z,3.07
2023-04-28T09:47:41.776Z,3.60
2023-04-28T09:50:12.800Z,3.70
2023-04-28T09:52:42.005Z,3.60
2023-04-28T09:55:09.584Z,3.50
2023-04-28T09:57:36.989Z,4.10
2023-04-28T10:00:07.044Z,4.13
2023-04-28T10:05:10.010Z,4.10
2023-04-28T10:07:39.299Z,4.00
2023-04-28T10:10:08.225Z,4.10
2023-04-28T10:12:38.577Z,3.50
2023-04-28T10:15:07.779Z,3.70
2023-04-28T10:17:36.939Z,3.80
2023-04-28T10:20:05.346Z,3.50
2023-04-28T10:22:51.133Z,3.40
2023-04-28T10:25:36.761Z,3.77
2023-04-28T10:28:08.758Z,3.93
2023-04-28T10:30:36.240Z,3.50
2023-04-28T10:33:12.128Z,3.70
2023-04-28T10:35:40.782Z,3.80
2023-04-28T10:38:15.035Z,3.83
2023-04-28T10:40:46.835Z,3.60
2023-04-28T10:43:27.272Z,3.43
2023-04-28T10:45:57.387Z,4.03
2023-04-28T10:48:34.487Z,3.90
2023-04-28T10:51:04.783Z,3.57
2023-04-28T10:53:47.408Z,3.80
2023-04-28T10:56:27.876Z,4.07
2023-04-28T10:58:59.184Z,3.47
2023-04-28T11:01:29.673Z,3.83
2023-04-28T11:04:03.123Z,3.50
2023-04-28T11:06:37.470Z,3.53
2023-04-28T11:09:33.308Z,4.20
2023-04-28T11:12:00.431Z,3.70
2023-04-28T11:14:30.519Z,3.70
2023-04-28T11:17:01.270Z,3.90
2023-04-28T11:19:31.134Z,4.03
2023-04-28T11:22:00.374Z,3.70
2023-04-28T11:24:32.238Z,3.97
2023-04-28T11:27:00.701Z,3.53
2023-04-28T11:29:40.347Z,4.10
2023-04-28T11:32:10.624Z,3.70
2023-04-28T11:34:38.214Z,4.20
2023-04-28T11:37:08.402Z,3.90
2023-04-28T11:39:36.005Z,4.07
2023-04-28T11:42:10.511Z,4.10
2023-04-28T11:44:38.248Z,3.70
2023-04-28T11:47:07.125Z,4.30
2023-04-28T11:49:45.673Z,3.90
2023-04-28T11:52:13.739Z,4.63
2023-04-28T11:54:43.721Z,4.23
2023-04-28T11:57:21.861Z,4.03
2023-04-28T11:59:50.572Z,4.47
2023-04-28T12:02:29.736Z,3.93
2023-04-28T12:05:05.621Z,4.50
2023-04-28T12:07:44.720Z,11.63
2023-04-28T12:10:19.889Z,4.40
2023-04-28T12:12:52.465Z,4.00
2023-04-28T12:15:22.209Z,4.57
2023-04-28T12:17:51.122Z,4.77
2023-04-28T12:20:39.002Z,4.60
2023-04-28T12:23:07.926Z,4.27
2023-04-28T12:25:48.159Z,4.93
2023-04-28T12:28:15.414Z,4.80
2023-04-28T12:30:43.742Z,5.03
2023-04-28T12:33:28.027Z,5.67
2023-04-28T12:35:56.698Z,5.67
2023-04-28T12:38:24.829Z,5.53
2023-04-28T12:40:52.525Z,5.60
2023-04-28T12:43:19.684Z,5.00
2023-04-28T12:45:46.768Z,5.87
2023-04-28T12:48:13.849Z,5.50
2023-04-28T12:50:40.973Z,5.27
2023-04-28T12:53:08.082Z,5.23
2023-04-28T12:55:35.261Z,6.00
2023-04-28T12:58:02.323Z,6.33
2023-04-28T13:00:29.353Z,6.60
2023-04-28T13:02:59.065Z,6.30
2023-04-28T13:05:26.344Z,5.73
2023-04-28T13:07:54.264Z,6.10
2023-04-28T13:10:24.061Z,6.37
2023-04-28T13:12:51.432Z,5.83
2023-04-28T13:15:18.555Z,5.73
2023-04-28T13:17:46.611Z,5.97
2023-04-28T13:20:13.790Z,5.57
2023-04-28T13:22:42.091Z,5.80
2023-04-28T13:25:09.820Z,5.70
2023-04-28T13:27:40.649Z,6.10
2023-04-28T13:30:09.676Z,6.27
2023-04-28T13:32:36.724Z,6.40
2023-04-28T13:35:03.969Z,6.13
2023-04-28T13:37:31.858Z,6.00
2023-04-28T13:39:59.574Z,6.83
2023-04-28T13:42:26.989Z,5.87
2023-04-28T13:44:54.180Z,6.67
2023-04-28T13:47:21.803Z,6.83
2023-04-28T13:49:49.677Z,6.80
2023-04-28T13:52:17.679Z,6.87
2023-04-28T13:54:45.244Z,6.40
2023-04-28T13:57:13.657Z,6.47
2023-04-28T13:59:41.449Z,7.00
2023-04-28T14:02:09.691Z,6.47
2023-04-28T14:04:37.194Z,6.77
2023-04-28T14:07:04.529Z,7.00
2023-04-28T14:09:32.592Z,6.93
2023-04-28T14:11:59.660Z,7.50
2023-04-28T14:14:26.831Z,7.40
2023-04-28T14:16:53.985Z,6.83
2023-04-28T14:19:21.168Z,7.27
2023-04-28T14:21:49.122Z,6.83
2023-04-28T14:24:16.299Z,6.67
2023-04-28T14:26:44.096Z,7.20
2023-04-28T14:29:11.346Z,7.40
2023-04-28T14:31:38.988Z,7.30
2023-04-28T14:34:06.276Z,7.47
2023-04-28T14:36:33.722Z,7.70
2023-04-28T14:39:01.247Z,7.43
2023-04-28T14:41:28.479Z,6.73
2023-04-28T14:43:55.620Z,6.90
2023-04-28T14:46:23.485Z,7.47
2023-04-28T14:48:51.294Z,7.47
2023-04-28T14:51:18.836Z,7.10
2023-04-28T14:53:46.114Z,7.17
2023-04-28T14:56:19.116Z,7.70
2023-04-28T14:58:47.521Z,7.73
2023-04-28T15:01:15.619Z,8.33
2023-04-28T15:03:44.308Z,7.93
2023-04-28T15:06:12.172Z,8.17
2023-04-28T15:08:40.736Z,7.87
2023-04-28T15:11:07.877Z,8.13
2023-04-28T15:13:35.315Z,7.57
2023-04-28T15:16:03.170Z,7.90
2023-04-28T15:18:31.188Z,8.03
2023-04-28T15:20:58.467Z,7.63
2023-04-28T15:23:25.707Z,7.93
2023-04-28T15:25:54.197Z,7.83
2023-04-28T15:28:22.224Z,7.70
2023-04-28T15:30:49.314Z,8.33
2023-04-28T15:33:19.243Z,8.90
2023-04-28T15:35:46.733Z,8.43
2023-04-28T15:38:13.960Z,8.43
2023-04-28T15:40:42.080Z,8.00
2023-04-28T15:43:09.683Z,8.60
2023-04-28T15:45:37.740Z,8.00
2023-04-28T15:48:06.608Z,8.87
2023-04-28T15:50:34.125Z,10.30
2023-04-28T15:53:01.528Z,9.30
2023-04-28T15:55:28.690Z,9.27
2023-04-28T15:57:56.398Z,9.07
2023-04-28T16:00:23.736Z,9.13
2023-04-28T16:02:51.015Z,9.00
2023-04-28T16:05:18.262Z,9.20
2023-04-28T16:07:45.553Z,10.50
2023-04-28T16:10:14.324Z,10.10
2023-04-28T16:12:42.099Z,8.70
2023-04-28T16:15:12.290Z,8.80
2023-04-28T16:17:40.347Z,9.40
2023-04-28T16:20:09.791Z,8.43
2023-04-28T16:22:38.151Z,9.40
2023-04-28T16:25:06.831Z,11.53
2023-04-28T16:27:35.168Z,15.83
2023-04-28T16:30:02.530Z,14.73
2023-04-28T16:32:30.742Z,23.27
2023-04-28T16:34:58.601Z,11.20
2023-04-28T16:37:26.470Z,8.53
2023-04-28T16:39:54.043Z,8.93
2023-04-28T16:42:22.450Z,7.30
2023-04-28T16:44:52.539Z,7.60
2023-04-28T16:47:20.826Z,6.80
2023-04-28T16:49:48.620Z,7.10
2023-04-28T16:52:16.720Z,7.47
2023-04-28T16:54:44.261Z,7.10
2023-04-28T16:57:11.519Z,6.47
2023-04-28T16:59:38.643Z,7.43
2023-04-28T17:02:06.734Z,6.23
2023-04-28T17:04:34.092Z,6.43
2023-04-28T17:07:04.653Z,6.77
2023-04-28T17:09:33.370Z,6.93
2023-04-28T17:12:03.850Z,7.97
2023-04-28T17:14:31.170Z,6.60
2023-04-28T17:16:58.465Z,5.80
2023-04-28T17:19:26.108Z,7.17
2023-04-28T17:21:55.718Z,9.73
2023-04-28T17:24:23.712Z,9.00
2023-04-28T17:26:51.209Z,8.07
2023-04-28T17:29:18.618Z,7.27
2023-04-28T17:31:46.220Z,6.63
2023-04-28T17:34:13.376Z,7.27
2023-04-28T17:36:40.748Z,6.67
2023-04-28T17:39:09.396Z,7.90
2023-04-28T17:41:36.576Z,5.67
2023-04-28T17:44:03.762Z,6.17
2023-04-28T17:46:30.906Z,6.33
2023-04-28T17:48:59.983Z,7.00
2023-04-28T17:51:28.010Z,7.50
2023-04-28T17:53:56.935Z,8.63
2023-04-28T17:56:24.276Z,8.73
2023-04-28T17:58:51.832Z,8.87
2023-04-28T18:01:19.405Z,6.97
2023-04-28T18:03:47.301Z,8.73
2023-04-28T18:06:14.482Z,7.10
2023-04-28T18:08:41.588Z,7.43
2023-04-28T18:11:10.130Z,9.20
2023-04-28T18:13:37.316Z,7.17
2023-04-28T18:16:05.263Z,6.67
2023-04-28T18:18:35.388Z,7.97
2023-04-28T18:21:03.022Z,8.50
2023-04-28T18:23:33.162Z,6.30
2023-04-28T18:26:00.290Z,7.30
2023-04-28T18:28:27.460Z,8.77
2023-04-28T18:30:54.612Z,7.30
2023-04-28T18:33:23.507Z,6.43
2023-04-28T18:36:04.627Z,7.77
2023-04-28T18:38:34.574Z,7.60
2023-04-28T18:41:22.517Z,6.60
2023-04-28T18:43:49.707Z,7.33
2023-04-28T18:46:17.111Z,8.07
2023-04-28T18:48:44.694Z,6.63
2023-04-28T18:51:11.801Z,6.73
2023-04-28T18:53:38.903Z,7.10
2023-04-28T18:56:06.117Z,6.27
2023-04-28T18:58:33.722Z,6.33
2023-04-28T19:01:00.809Z,5.90
2023-04-28T19:03:28.333Z,5.93
2023-04-28T19:05:55.741Z,6.77
2023-04-28T19:08:23.462Z,6.50
2023-04-28T19:10:50.843Z,6.87
2023-04-28T19:13:17.953Z,6.43
2023-04-28T19:15:45.152Z,7.33
2023-04-28T19:18:12.686Z,6.80
2023-04-28T19:20:42.141Z,7.47
2023-04-28T19:23:09.374Z,8.17
2023-04-28T19:25:36.998Z,7.83
2023-04-28T19:28:04.355Z,6.80
2023-04-28T19:30:31.566Z,6.63
2023-04-28T19:32:58.833Z,6.33
2023-04-28T19:35:26.175Z,6.90
2023-04-28T19:37:54.201Z,7.37
2023-04-28T19:40:22.174Z,7.27
2023-04-28T19:42:49.277Z,7.00
2023-04-28T19:45:17.403Z,6.83
2023-04-28T19:47:44.853Z,7.30
2023-04-28T19:50:12.029Z,7.53
2023-04-28T19:52:39.732Z,6.93
2023-04-28T19:55:08.199Z,8.83
2023-04-28T19:57:35.283Z,8.57
2023-04-28T20:00:02.558Z,7.17
2023-04-28T20:02:35.183Z,7.40
2023-04-28T20:05:02.709Z,6.70
2023-04-28T20:07:30.125Z,8.20
2023-04-28T20:09:58.336Z,7.77
2023-04-28T20:12:25.600Z,10.30
2023-04-28T20:14:53.245Z,8.00
2023-04-28T20:17:20.350Z,5.67
2023-04-28T20:19:47.700Z,5.40
2023-04-28T20:22:14.791Z,5.20
2023-04-28T20:24:42.474Z,6.67
2023-04-28T20:27:10.869Z,5.63
2023-04-28T20:29:38.411Z,6.70
2023-04-28T20:32:05.599Z,6.27
2023-04-28T20:34:33.042Z,7.50
2023-04-28T20:37:03.320Z,7.20
2023-04-28T20:39:30.519Z,7.17
2023-04-28T20:41:58.852Z,6.90
2023-04-28T20:44:26.464Z,6.80
2023-04-28T20:46:53.648Z,6.93
2023-04-28T20:49:20.791Z,6.43
2023-04-28T20:51:47.980Z,6.70
2023-04-28T20:54:15.312Z,7.20
2023-04-28T20:56:43.061Z,6.30
2023-04-28T20:59:10.381Z,6.43
2023-04-28T21:01:37.448Z,7.23
2023-04-28T21:04:04.747Z,8.17
2023-04-28T21:06:31.869Z,9.77
2023-04-28T21:08:58.946Z,10.33
2023-04-28T21:11:26.185Z,8.33
2023-04-28T21:13:53.226Z,7.20
2023-04-28T21:16:21.642Z,8.27
2023-04-28T21:18:49.886Z,7.37
2023-04-28T21:21:17.554Z,8.67
2023-04-28T21:23:45.722Z,7.40
2023-04-28T21:26:13.473Z,8.10
2023-04-28T21:28:41.670Z,6.63
2023-04-28T21:31:09.980Z,8.30
2023-04-28T21:33:37.249Z,6.93
2023-04-28T21:36:07.553Z,7.33
2023-04-28T21:38:35.787Z,7.67
2023-04-28T21:41:03.141Z,8.37
2023-04-28T21:43:30.198Z,9.10
2023-04-28T21:45:57.432Z,8.97
2023-04-28T21:48:24.593Z,8.47
2023-04-28T21:50:51.958Z,9.03
2023-04-28T21:53:19.068Z,8.27
2023-04-28T21:55:46.200Z,9.80
2023-04-28T21:58:13.310Z,11.17
2023-04-28T22:00:43.962Z,10.80
2023-04-28T22:03:12.426Z,9.60
2023-04-28T22:05:41.313Z,9.27
2023-04-28T22:08:08.459Z,7.67
2023-04-28T22:10:35.765Z,11.43
2023-04-28T22:13:03.193Z,11.07
2023-04-28T22:15:30.964Z,10.23
2023-04-28T22:17:58.311Z,9.27
2023-04-28T22:20:25.583Z,8.13
2023-04-28T22:22:54.014Z,7.53
2023-04-28T22:25:21.525Z,7.33
2023-04-28T22:27:48.880Z,7.70
2023-04-28T22:30:16.214Z,7.40
2023-04-28T22:32:44.828Z,7.50
2023-04-28T22:35:16.720Z,7.40
2023-04-28T22:37:44.291Z,7.47
2023-04-28T22:40:11.958Z,7.87
2023-04-28T22:42:40.918Z,6.90
2023-04-28T22:45:10.261Z,6.10
2023-04-28T22:47:39.131Z,5.80
2023-04-28T22:50:08.122Z,5.83
2023-04-28T22:52:35.395Z,6.10
2023-04-28T22:55:02.816Z,5.50
2023-04-28T22:57:29.957Z,4.80
2023-04-28T22:59:57.002Z,4.50
2023-04-28T23:02:24.607Z,4.40
2023-04-28T23:04:51.960Z,4.30
2023-04-28T23:07:19.048Z,4.60
2023-04-28T23:09:46.437Z,4.60
2023-04-28T23:12:13.629Z,5.00
2023-04-28T23:14:40.822Z,5.03
2023-04-28T23:17:07.975Z,4.57
2023-04-28T23:19:39.043Z,5.13
2023-04-28T23:22:07.906Z,5.13
2023-04-28T23:24:37.254Z,5.00
2023-04-28T23:27:05.015Z,4.90
2023-04-28T23:29:32.705Z,5.00
2023-04-28T23:31:59.974Z,5.10
2023-04-28T23:34:27.193Z,4.90
2023-04-28T23:36:54.442Z,4.83
2023-04-28T23:39:21.463Z,5.00
2023-04-28T23:41:48.619Z,4.63
2023-04-28T23:44:15.792Z,4.63
2023-04-28T23:46:43.142Z,4.60
2023-04-28T23:49:10.437Z,4.53
2023-04-28T23:51:37.519Z,4.37
2023-04-28T23:54:04.605Z,4.30
2023-04-28T23:56:31.952Z,4.30
2023-04-28T23:58:59.051Z,4.23
